sensor_id;sensor_type;location;lat;lon;timestamp;P1;durP1;ratioP1;P2;durP2;ratioP2
52043;SDS011;38053;53.100;6.078;2023-08-30T00:00:38;19.98;;;17.08;;
52043;SDS011;38053;53.100;6.078;2023-08-30T00:03:04;18.45;;;15.15;;
52043;SDS011;38053;53.100;6.078;2023-08-30T00:05:31;18.35;;;15.80;;
52043;SDS011;38053;53.100;6.078;2023-08-30T00:07:57;23.88;;;16.27;;
52043;SDS011;38053;53.100;6.078;2023-08-30T00:10:23;18.15;;;16.30;;
52043;SDS011;38053;53.100;6.078;2023-08-30T00:12:48;19.75;;;15.43;;
52043;SDS011;38053;53.100;6.078;2023-08-30T00:15:14;18.55;;;16.55;;
52043;SDS011;38053;53.100;6.078;2023-08-30T00:17:40;19.95;;;17.30;;
52043;SDS011;38053;53.100;6.078;2023-08-30T00:20:06;17.92;;;15.27;;
52043;SDS011;38053;53.100;6.078;2023-08-30T00:22:34;21.10;;;15.98;;
52043;SDS011;38053;53.100;6.078;2023-08-30T00:25:00;18.23;;;16.33;;
52043;SDS011;38053;53.100;6.078;2023-08-30T00:27:26;18.58;;;15.43;;
52043;SDS011;38053;53.100;6.078;2023-08-30T00:29:52;19.00;;;16.88;;
52043;SDS011;38053;53.100;6.078;2023-08-30T00:32:18;17.88;;;16.02;;
52043;SDS011;38053;53.100;6.078;2023-08-30T00:34:44;20.80;;;17.40;;
52043;SDS011;38053;53.100;6.078;2023-08-30T00:37:09;18.65;;;16.13;;
52043;SDS011;38053;53.100;6.078;2023-08-30T00:39:38;21.70;;;17.00;;
52043;SDS011;38053;53.100;6.078;2023-08-30T00:42:04;19.17;;;16.40;;
52043;SDS011;38053;53.100;6.078;2023-08-30T00:44:32;20.42;;;17.17;;
52043;SDS011;38053;53.100;6.078;2023-08-30T00:46:59;19.85;;;15.98;;
52043;SDS011;38053;53.100;6.078;2023-08-30T00:49:29;18.10;;;16.20;;
52043;SDS011;38053;53.100;6.078;2023-08-30T00:51:56;17.38;;;15.25;;
52043;SDS011;38053;53.100;6.078;2023-08-30T00:54:30;18.65;;;15.77;;
52043;SDS011;38053;53.100;6.078;2023-08-30T00:56:56;24.83;;;16.15;;
52043;SDS011;38053;53.100;6.078;2023-08-30T00:59:22;18.35;;;15.25;;
52043;SDS011;38053;53.100;6.078;2023-08-30T01:01:48;19.05;;;15.60;;
52043;SDS011;38053;53.100;6.078;2023-08-30T01:04:14;23.08;;;15.52;;
52043;SDS011;38053;53.100;6.078;2023-08-30T01:06:41;18.40;;;15.18;;
52043;SDS011;38053;53.100;6.078;2023-08-30T01:09:07;18.02;;;15.15;;
52043;SDS011;38053;53.100;6.078;2023-08-30T01:14:18;16.95;;;14.27;;
52043;SDS011;38053;53.100;6.078;2023-08-30T01:16:53;18.58;;;15.85;;
52043;SDS011;38053;53.100;6.078;2023-08-30T01:22:05;20.00;;;15.45;;
52043;SDS011;38053;53.100;6.078;2023-08-30T01:24:52;18.20;;;15.25;;
52043;SDS011;38053;53.100;6.078;2023-08-30T01:27:33;16.85;;;14.05;;
52043;SDS011;38053;53.100;6.078;2023-08-30T01:30:01;16.42;;;13.23;;
52043;SDS011;38053;53.100;6.078;2023-08-30T01:32:30;19.85;;;13.43;;
52043;SDS011;38053;53.100;6.078;2023-08-30T01:34:58;17.25;;;14.27;;
52043;SDS011;38053;53.100;6.078;2023-08-30T01:37:26;20.60;;;14.25;;
52043;SDS011;38053;53.100;6.078;2023-08-30T01:39:52;16.67;;;13.95;;
52043;SDS011;38053;53.100;6.078;2023-08-30T01:42:22;18.10;;;14.77;;
52043;SDS011;38053;53.100;6.078;2023-08-30T01:44:53;15.97;;;14.03;;
52043;SDS011;38053;53.100;6.078;2023-08-30T01:47:25;19.75;;;14.07;;
52043;SDS011;38053;53.100;6.078;2023-08-30T01:49:53;16.40;;;14.57;;
52043;SDS011;38053;53.100;6.078;2023-08-30T01:52:20;15.88;;;13.15;;
52043;SDS011;38053;53.100;6.078;2023-08-30T01:54:47;18.25;;;13.82;;
52043;SDS011;38053;53.100;6.078;2023-08-30T01:57:14;17.98;;;14.52;;
52043;SDS011;38053;53.100;6.078;2023-08-30T01:59:40;18.95;;;13.68;;
52043;SDS011;38053;53.100;6.078;2023-08-30T02:02:05;18.00;;;14.32;;
52043;SDS011;38053;53.100;6.078;2023-08-30T02:04:31;20.45;;;15.23;;
52043;SDS011;38053;53.100;6.078;2023-08-30T02:07:01;17.25;;;13.82;;
52043;SDS011;38053;53.100;6.078;2023-08-30T02:12:31;17.95;;;14.02;;
52043;SDS011;38053;53.100;6.078;2023-08-30T02:15:04;20.13;;;14.40;;
52043;SDS011;38053;53.100;6.078;2023-08-30T02:17:33;16.95;;;13.73;;
52043;SDS011;38053;53.100;6.078;2023-08-30T02:20:00;17.23;;;14.02;;
52043;SDS011;38053;53.100;6.078;2023-08-30T02:22:27;17.40;;;12.82;;
52043;SDS011;38053;53.100;6.078;2023-08-30T02:24:55;16.48;;;13.82;;
52043;SDS011;38053;53.100;6.078;2023-08-30T02:27:21;16.85;;;13.98;;
52043;SDS011;38053;53.100;6.078;2023-08-30T02:29:46;15.73;;;12.25;;
52043;SDS011;38053;53.100;6.078;2023-08-30T02:32:12;19.45;;;14.18;;
52043;SDS011;38053;53.100;6.078;2023-08-30T02:34:38;16.38;;;13.40;;
52043;SDS011;38053;53.100;6.078;2023-08-30T02:37:04;20.17;;;15.00;;
52043;SDS011;38053;53.100;6.078;2023-08-30T02:39:29;22.23;;;15.88;;
52043;SDS011;38053;53.100;6.078;2023-08-30T02:41:57;17.85;;;13.25;;
52043;SDS011;38053;53.100;6.078;2023-08-30T02:44:22;15.95;;;12.55;;
52043;SDS011;38053;53.100;6.078;2023-08-30T02:46:48;16.35;;;13.60;;
52043;SDS011;38053;53.100;6.078;2023-08-30T02:49:14;17.25;;;13.38;;
52043;SDS011;38053;53.100;6.078;2023-08-30T02:51:39;17.45;;;13.93;;
52043;SDS011;38053;53.100;6.078;2023-08-30T02:54:07;17.42;;;13.85;;
52043;SDS011;38053;53.100;6.078;2023-08-30T02:56:33;19.92;;;14.63;;
52043;SDS011;38053;53.100;6.078;2023-08-30T02:58:59;17.98;;;13.85;;
52043;SDS011;38053;53.100;6.078;2023-08-30T03:01:25;19.13;;;14.60;;
52043;SDS011;38053;53.100;6.078;2023-08-30T03:03:50;17.40;;;14.10;;
52043;SDS011;38053;53.100;6.078;2023-08-30T03:06:16;19.52;;;14.27;;
52043;SDS011;38053;53.100;6.078;2023-08-30T03:08:42;20.95;;;14.85;;
52043;SDS011;38053;53.100;6.078;2023-08-30T03:11:11;19.30;;;13.90;;
52043;SDS011;38053;53.100;6.078;2023-08-30T03:13:37;16.10;;;13.60;;
52043;SDS011;38053;53.100;6.078;2023-08-30T03:16:12;18.23;;;14.60;;
52043;SDS011;38053;53.100;6.078;2023-08-30T03:18:39;19.85;;;15.32;;
52043;SDS011;38053;53.100;6.078;2023-08-30T03:21:05;20.95;;;14.55;;
52043;SDS011;38053;53.100;6.078;2023-08-30T03:23:32;18.90;;;14.18;;
52043;SDS011;38053;53.100;6.078;2023-08-30T03:25:58;20.15;;;15.18;;
52043;SDS011;38053;53.100;6.078;2023-08-30T03:28:25;18.92;;;15.23;;
52043;SDS011;38053;53.100;6.078;2023-08-30T03:30:55;17.08;;;14.65;;
52043;SDS011;38053;53.100;6.078;2023-08-30T03:33:21;19.77;;;15.85;;
52043;SDS011;38053;53.100;6.078;2023-08-30T03:35:46;17.13;;;14.77;;
52043;SDS011;38053;53.100;6.078;2023-08-30T03:38:12;19.70;;;14.95;;
52043;SDS011;38053;53.100;6.078;2023-08-30T03:40:39;22.45;;;15.07;;
52043;SDS011;38053;53.100;6.078;2023-08-30T03:43:05;21.10;;;15.00;;
52043;SDS011;38053;53.100;6.078;2023-08-30T03:45:33;20.52;;;16.02;;
52043;SDS011;38053;53.100;6.078;2023-08-30T03:48:03;20.73;;;15.23;;
52043;SDS011;38053;53.100;6.078;2023-08-30T03:50:29;18.67;;;14.98;;
52043;SDS011;38053;53.100;6.078;2023-08-30T03:52:55;19.98;;;15.05;;
52043;SDS011;38053;53.100;6.078;2023-08-30T03:55:22;22.83;;;15.40;;
52043;SDS011;38053;53.100;6.078;2023-08-30T03:57:48;19.42;;;14.65;;
52043;SDS011;38053;53.100;6.078;2023-08-30T04:00:14;17.33;;;14.18;;
52043;SDS011;38053;53.100;6.078;2023-08-30T04:02:40;23.85;;;16.40;;
52043;SDS011;38053;53.100;6.078;2023-08-30T04:05:06;17.48;;;14.65;;
52043;SDS011;38053;53.100;6.078;2023-08-30T04:07:35;20.58;;;12.93;;
52043;SDS011;38053;53.100;6.078;2023-08-30T04:10:04;16.35;;;13.57;;
52043;SDS011;38053;53.100;6.078;2023-08-30T04:12:32;18.45;;;14.18;;
52043;SDS011;38053;53.100;6.078;2023-08-30T04:15:02;17.33;;;13.90;;
52043;SDS011;38053;53.100;6.078;2023-08-30T04:17:28;17.67;;;13.70;;
52043;SDS011;38053;53.100;6.078;2023-08-30T04:19:54;19.80;;;13.45;;
52043;SDS011;38053;53.100;6.078;2023-08-30T04:22:20;19.58;;;14.75;;
52043;SDS011;38053;53.100;6.078;2023-08-30T04:24:46;18.63;;;14.02;;
52043;SDS011;38053;53.100;6.078;2023-08-30T04:27:12;19.75;;;13.45;;
52043;SDS011;38053;53.100;6.078;2023-08-30T04:29:38;19.25;;;15.02;;
52043;SDS011;38053;53.100;6.078;2023-08-30T04:32:04;18.67;;;13.63;;
52043;SDS011;38053;53.100;6.078;2023-08-30T04:34:30;21.33;;;14.80;;
52043;SDS011;38053;53.100;6.078;2023-08-30T04:36:56;15.85;;;13.60;;
52043;SDS011;38053;53.100;6.078;2023-08-30T04:39:22;16.75;;;13.50;;
52043;SDS011;38053;53.100;6.078;2023-08-30T04:41:48;18.20;;;14.10;;
52043;SDS011;38053;53.100;6.078;2023-08-30T04:44:13;21.05;;;13.82;;
52043;SDS011;38053;53.100;6.078;2023-08-30T04:46:39;15.93;;;13.65;;
52043;SDS011;38053;53.100;6.078;2023-08-30T04:49:05;18.00;;;14.25;;
52043;SDS011;38053;53.100;6.078;2023-08-30T04:51:30;22.55;;;13.77;;
52043;SDS011;38053;53.100;6.078;2023-08-30T04:53:56;17.80;;;14.20;;
52043;SDS011;38053;53.100;6.078;2023-08-30T04:56:22;17.67;;;13.50;;
52043;SDS011;38053;53.100;6.078;2023-08-30T04:58:48;17.02;;;12.68;;
52043;SDS011;38053;53.100;6.078;2023-08-30T05:01:15;17.08;;;12.80;;
52043;SDS011;38053;53.100;6.078;2023-08-30T05:03:41;16.98;;;13.07;;
52043;SDS011;38053;53.100;6.078;2023-08-30T05:06:07;20.77;;;15.52;;
52043;SDS011;38053;53.100;6.078;2023-08-30T05:08:33;16.83;;;12.45;;
52043;SDS011;38053;53.100;6.078;2023-08-30T05:10:58;16.08;;;13.40;;
52043;SDS011;38053;53.100;6.078;2023-08-30T05:13:24;16.90;;;13.25;;
52043;SDS011;38053;53.100;6.078;2023-08-30T05:15:50;21.08;;;13.65;;
52043;SDS011;38053;53.100;6.078;2023-08-30T05:18:16;20.40;;;13.40;;
52043;SDS011;38053;53.100;6.078;2023-08-30T05:20:43;18.17;;;13.18;;
52043;SDS011;38053;53.100;6.078;2023-08-30T05:23:09;19.52;;;13.60;;
52043;SDS011;38053;53.100;6.078;2023-08-30T05:25:35;18.27;;;13.57;;
52043;SDS011;38053;53.100;6.078;2023-08-30T05:28:00;19.42;;;12.85;;
52043;SDS011;38053;53.100;6.078;2023-08-30T05:30:26;16.35;;;12.50;;
52043;SDS011;38053;53.100;6.078;2023-08-30T05:32:52;19.17;;;14.20;;
52043;SDS011;38053;53.100;6.078;2023-08-30T05:35:18;17.25;;;13.88;;
52043;SDS011;38053;53.100;6.078;2023-08-30T05:37:43;18.00;;;13.65;;
52043;SDS011;38053;53.100;6.078;2023-08-30T05:40:09;20.98;;;13.38;;
52043;SDS011;38053;53.100;6.078;2023-08-30T05:42:36;15.82;;;12.35;;
52043;SDS011;38053;53.100;6.078;2023-08-30T05:45:01;16.70;;;12.25;;
52043;SDS011;38053;53.100;6.078;2023-08-30T05:47:28;17.92;;;13.35;;
52043;SDS011;38053;53.100;6.078;2023-08-30T05:49:54;19.35;;;13.50;;
52043;SDS011;38053;53.100;6.078;2023-08-30T05:52:19;17.40;;;12.70;;
52043;SDS011;38053;53.100;6.078;2023-08-30T05:54:46;15.93;;;12.95;;
52043;SDS011;38053;53.100;6.078;2023-08-30T05:57:11;17.10;;;13.45;;
52043;SDS011;38053;53.100;6.078;2023-08-30T05:59:37;19.25;;;12.52;;
52043;SDS011;38053;53.100;6.078;2023-08-30T06:02:03;18.02;;;12.50;;
52043;SDS011;38053;53.100;6.078;2023-08-30T06:04:29;18.10;;;12.27;;
52043;SDS011;38053;53.100;6.078;2023-08-30T06:06:55;24.60;;;15.02;;
52043;SDS011;38053;53.100;6.078;2023-08-30T06:09:21;17.23;;;11.63;;
52043;SDS011;38053;53.100;6.078;2023-08-30T06:11:46;18.80;;;13.43;;
52043;SDS011;38053;53.100;6.078;2023-08-30T06:14:12;16.92;;;12.13;;
52043;SDS011;38053;53.100;6.078;2023-08-30T06:16:38;19.55;;;12.05;;
52043;SDS011;38053;53.100;6.078;2023-08-30T06:21:34;19.02;;;12.63;;
52043;SDS011;38053;53.100;6.078;2023-08-30T06:24:00;16.58;;;11.77;;
52043;SDS011;38053;53.100;6.078;2023-08-30T06:26:26;27.70;;;12.75;;
52043;SDS011;38053;53.100;6.078;2023-08-30T06:28:52;15.98;;;11.90;;
52043;SDS011;38053;53.100;6.078;2023-08-30T06:31:17;20.05;;;11.48;;
52043;SDS011;38053;53.100;6.078;2023-08-30T06:33:43;15.60;;;11.40;;
52043;SDS011;38053;53.100;6.078;2023-08-30T06:36:09;14.75;;;11.00;;
52043;SDS011;38053;53.100;6.078;2023-08-30T06:38:37;17.10;;;11.32;;
52043;SDS011;38053;53.100;6.078;2023-08-30T06:41:02;15.73;;;11.13;;
52043;SDS011;38053;53.100;6.078;2023-08-30T06:43:28;18.23;;;11.82;;
52043;SDS011;38053;53.100;6.078;2023-08-30T06:45:57;16.20;;;10.93;;
52043;SDS011;38053;53.100;6.078;2023-08-30T06:48:23;18.52;;;12.70;;
52043;SDS011;38053;53.100;6.078;2023-08-30T06:50:49;18.73;;;11.52;;
52043;SDS011;38053;53.100;6.078;2023-08-30T06:53:15;17.95;;;12.10;;
52043;SDS011;38053;53.100;6.078;2023-08-30T06:55:40;18.20;;;11.90;;
52043;SDS011;38053;53.100;6.078;2023-08-30T06:58:06;17.88;;;13.05;;
52043;SDS011;38053;53.100;6.078;2023-08-30T07:00:32;19.55;;;12.95;;
52043;SDS011;38053;53.100;6.078;2023-08-30T07:02:58;18.80;;;12.75;;
52043;SDS011;38053;53.100;6.078;2023-08-30T07:05:23;16.83;;;12.55;;
52043;SDS011;38053;53.100;6.078;2023-08-30T07:07:49;18.33;;;11.07;;
52043;SDS011;38053;53.100;6.078;2023-08-30T07:10:15;14.50;;;10.55;;
52043;SDS011;38053;53.100;6.078;2023-08-30T07:12:41;15.43;;;11.30;;
52043;SDS011;38053;53.100;6.078;2023-08-30T07:15:07;14.65;;;10.35;;
52043;SDS011;38053;53.100;6.078;2023-08-30T07:17:33;16.90;;;11.75;;
52043;SDS011;38053;53.100;6.078;2023-08-30T07:19:59;15.68;;;11.20;;
52043;SDS011;38053;53.100;6.078;2023-08-30T07:22:24;19.48;;;10.48;;
52043;SDS011;38053;53.100;6.078;2023-08-30T07:24:50;22.83;;;10.82;;
52043;SDS011;38053;53.100;6.078;2023-08-30T07:27:16;16.30;;;10.18;;
52043;SDS011;38053;53.100;6.078;2023-08-30T07:29:42;17.27;;;11.07;;
52043;SDS011;38053;53.100;6.078;2023-08-30T07:32:09;13.98;;;9.65;;
52043;SDS011;38053;53.100;6.078;2023-08-30T07:34:34;16.25;;;9.57;;
52043;SDS011;38053;53.100;6.078;2023-08-30T07:37:00;13.07;;;9.25;;
52043;SDS011;38053;53.100;6.078;2023-08-30T07:39:27;14.13;;;8.90;;
52043;SDS011;38053;53.100;6.078;2023-08-30T07:41:52;15.23;;;8.68;;
52043;SDS011;38053;53.100;6.078;2023-08-30T07:44:18;16.77;;;9.00;;
52043;SDS011;38053;53.100;6.078;2023-08-30T07:46:45;11.73;;;7.75;;
52043;SDS011;38053;53.100;6.078;2023-08-30T07:49:11;14.07;;;8.88;;
52043;SDS011;38053;53.100;6.078;2023-08-30T07:51:37;13.25;;;8.80;;
52043;SDS011;38053;53.100;6.078;2023-08-30T07:54:02;10.95;;;7.03;;
52043;SDS011;38053;53.100;6.078;2023-08-30T07:56:28;18.83;;;7.57;;
52043;SDS011;38053;53.100;6.078;2023-08-30T07:58:54;12.30;;;7.45;;
52043;SDS011;38053;53.100;6.078;2023-08-30T08:01:20;12.35;;;7.28;;
52043;SDS011;38053;53.100;6.078;2023-08-30T08:03:48;10.60;;;7.88;;
52043;SDS011;38053;53.100;6.078;2023-08-30T08:06:14;14.25;;;8.02;;
52043;SDS011;38053;53.100;6.078;2023-08-30T08:08:40;15.98;;;8.68;;
52043;SDS011;38053;53.100;6.078;2023-08-30T08:11:05;13.43;;;9.15;;
52043;SDS011;38053;53.100;6.078;2023-08-30T08:13:31;15.38;;;9.18;;
52043;SDS011;38053;53.100;6.078;2023-08-30T08:15:57;14.52;;;8.32;;
52043;SDS011;38053;53.100;6.078;2023-08-30T08:18:23;14.77;;;9.15;;
52043;SDS011;38053;53.100;6.078;2023-08-30T08:20:49;12.93;;;8.23;;
52043;SDS011;38053;53.100;6.078;2023-08-30T08:23:15;16.85;;;9.20;;
52043;SDS011;38053;53.100;6.078;2023-08-30T08:25:41;14.82;;;9.77;;
52043;SDS011;38053;53.100;6.078;2023-08-30T08:28:06;13.25;;;9.38;;
52043;SDS011;38053;53.100;6.078;2023-08-30T08:30:32;15.73;;;10.00;;
52043;SDS011;38053;53.100;6.078;2023-08-30T08:32:58;13.27;;;9.43;;
52043;SDS011;38053;53.100;6.078;2023-08-30T08:35:24;18.50;;;10.85;;
52043;SDS011;38053;53.100;6.078;2023-08-30T08:37:50;16.88;;;9.77;;
52043;SDS011;38053;53.100;6.078;2023-08-30T08:40:16;12.52;;;8.85;;
52043;SDS011;38053;53.100;6.078;2023-08-30T08:42:42;15.35;;;9.95;;
52043;SDS011;38053;53.100;6.078;2023-08-30T08:45:09;19.65;;;10.23;;
52043;SDS011;38053;53.100;6.078;2023-08-30T08:47:37;15.85;;;10.55;;
52043;SDS011;38053;53.100;6.078;2023-08-30T08:50:03;16.10;;;9.18;;
52043;SDS011;38053;53.100;6.078;2023-08-30T08:52:29;13.48;;;9.90;;
52043;SDS011;38053;53.100;6.078;2023-08-30T08:54:56;14.68;;;9.60;;
52043;SDS011;38053;53.100;6.078;2023-08-30T08:57:22;15.35;;;9.73;;
52043;SDS011;38053;53.100;6.078;2023-08-30T08:59:48;14.35;;;8.25;;
52043;SDS011;38053;53.100;6.078;2023-08-30T09:02:15;13.45;;;8.93;;
52043;SDS011;38053;53.100;6.078;2023-08-30T09:04:41;15.27;;;9.85;;
52043;SDS011;38053;53.100;6.078;2023-08-30T09:07:07;12.88;;;9.00;;
52043;SDS011;38053;53.100;6.078;2023-08-30T09:09:33;12.57;;;9.45;;
52043;SDS011;38053;53.100;6.078;2023-08-30T09:11:59;12.38;;;8.30;;
52043;SDS011;38053;53.100;6.078;2023-08-30T09:14:25;17.02;;;10.07;;
52043;SDS011;38053;53.100;6.078;2023-08-30T09:16:55;15.52;;;8.98;;
52043;SDS011;38053;53.100;6.078;2023-08-30T09:19:20;13.07;;;8.93;;
52043;SDS011;38053;53.100;6.078;2023-08-30T09:22:05;15.57;;;9.63;;
52043;SDS011;38053;53.100;6.078;2023-08-30T09:24:39;15.18;;;8.93;;
52043;SDS011;38053;53.100;6.078;2023-08-30T09:27:05;13.48;;;9.32;;
52043;SDS011;38053;53.100;6.078;2023-08-30T09:29:31;14.32;;;9.20;;
52043;SDS011;38053;53.100;6.078;2023-08-30T09:31:58;14.40;;;9.68;;
52043;SDS011;38053;53.100;6.078;2023-08-30T09:34:24;14.63;;;9.95;;
52043;SDS011;38053;53.100;6.078;2023-08-30T09:36:53;14.70;;;9.52;;
52043;SDS011;38053;53.100;6.078;2023-08-30T09:39:20;15.48;;;9.73;;
52043;SDS011;38053;53.100;6.078;2023-08-30T09:41:47;14.60;;;8.35;;
52043;SDS011;38053;53.100;6.078;2023-08-30T09:44:14;14.57;;;9.25;;
52043;SDS011;38053;53.100;6.078;2023-08-30T09:46:59;12.20;;;7.75;;
52043;SDS011;38053;53.100;6.078;2023-08-30T09:49:25;12.07;;;7.57;;
52043;SDS011;38053;53.100;6.078;2023-08-30T09:51:53;10.30;;;7.30;;
52043;SDS011;38053;53.100;6.078;2023-08-30T09:54:20;13.00;;;8.02;;
52043;SDS011;38053;53.100;6.078;2023-08-30T09:56:46;13.18;;;7.63;;
52043;SDS011;38053;53.100;6.078;2023-08-30T09:59:13;13.55;;;7.72;;
52043;SDS011;38053;53.100;6.078;2023-08-30T10:01:40;11.45;;;8.32;;
52043;SDS011;38053;53.100;6.078;2023-08-30T10:04:08;11.68;;;7.18;;
52043;SDS011;38053;53.100;6.078;2023-08-30T10:06:35;9.75;;;7.43;;
52043;SDS011;38053;53.100;6.078;2023-08-30T10:09:05;11.98;;;8.07;;
52043;SDS011;38053;53.100;6.078;2023-08-30T10:11:33;12.55;;;8.35;;
52043;SDS011;38053;53.100;6.078;2023-08-30T10:14:02;13.07;;;8.45;;
52043;SDS011;38053;53.100;6.078;2023-08-30T10:16:42;12.98;;;7.65;;
52043;SDS011;38053;53.100;6.078;2023-08-30T10:19:11;13.18;;;8.48;;
52043;SDS011;38053;53.100;6.078;2023-08-30T10:21:45;10.13;;;7.28;;
52043;SDS011;38053;53.100;6.078;2023-08-30T10:24:14;13.63;;;7.90;;
52043;SDS011;38053;53.100;6.078;2023-08-30T10:26:43;11.90;;;7.03;;
52043;SDS011;38053;53.100;6.078;2023-08-30T10:29:11;8.27;;;6.47;;
52043;SDS011;38053;53.100;6.078;2023-08-30T10:31:40;11.15;;;7.32;;
52043;SDS011;38053;53.100;6.078;2023-08-30T10:34:15;12.15;;;7.90;;
52043;SDS011;38053;53.100;6.078;2023-08-30T10:36:42;10.15;;;6.65;;
52043;SDS011;38053;53.100;6.078;2023-08-30T10:39:12;9.55;;;6.55;;
52043;SDS011;38053;53.100;6.078;2023-08-30T10:41:53;11.57;;;6.22;;
52043;SDS011;38053;53.100;6.078;2023-08-30T10:44:21;8.52;;;5.68;;
52043;SDS011;38053;53.100;6.078;2023-08-30T10:46:51;11.25;;;5.72;;
52043;SDS011;38053;53.100;6.078;2023-08-30T10:49:19;9.52;;;5.63;;
52043;SDS011;38053;53.100;6.078;2023-08-30T10:51:53;8.40;;;4.68;;
52043;SDS011;38053;53.100;6.078;2023-08-30T10:54:20;7.35;;;4.28;;
52043;SDS011;38053;53.100;6.078;2023-08-30T10:56:54;7.18;;;4.15;;
52043;SDS011;38053;53.100;6.078;2023-08-30T10:59:22;6.95;;;4.22;;
52043;SDS011;38053;53.100;6.078;2023-08-30T11:01:49;8.25;;;4.57;;
52043;SDS011;38053;53.100;6.078;2023-08-30T11:04:17;6.00;;;3.80;;
52043;SDS011;38053;53.100;6.078;2023-08-30T11:06:44;8.77;;;4.32;;
52043;SDS011;38053;53.100;6.078;2023-08-30T11:09:14;6.28;;;4.03;;
52043;SDS011;38053;53.100;6.078;2023-08-30T11:11:43;8.00;;;4.45;;
52043;SDS011;38053;53.100;6.078;2023-08-30T11:14:09;8.32;;;4.20;;
52043;SDS011;38053;53.100;6.078;2023-08-30T11:16:36;5.80;;;4.28;;
52043;SDS011;38053;53.100;6.078;2023-08-30T11:19:05;10.45;;;4.90;;
52043;SDS011;38053;53.100;6.078;2023-08-30T11:21:34;7.20;;;5.03;;
52043;SDS011;38053;53.100;6.078;2023-08-30T11:24:04;8.90;;;4.90;;
52043;SDS011;38053;53.100;6.078;2023-08-30T11:26:31;9.27;;;5.05;;
52043;SDS011;38053;53.100;6.078;2023-08-30T11:28:57;9.82;;;5.03;;
52043;SDS011;38053;53.100;6.078;2023-08-30T11:31:25;8.00;;;5.70;;
52043;SDS011;38053;53.100;6.078;2023-08-30T11:33:53;7.53;;;4.95;;
52043;SDS011;38053;53.100;6.078;2023-08-30T11:36:21;6.57;;;4.55;;
52043;SDS011;38053;53.100;6.078;2023-08-30T11:38:52;8.80;;;5.93;;
52043;SDS011;38053;53.100;6.078;2023-08-30T11:41:20;8.60;;;4.68;;
52043;SDS011;38053;53.100;6.078;2023-08-30T11:43:52;8.38;;;5.60;;
52043;SDS011;38053;53.100;6.078;2023-08-30T11:46:19;8.95;;;5.22;;
52043;SDS011;38053;53.100;6.078;2023-08-30T11:48:46;9.02;;;6.10;;
52043;SDS011;38053;53.100;6.078;2023-08-30T11:51:14;9.27;;;5.72;;
52043;SDS011;38053;53.100;6.078;2023-08-30T11:53:41;7.18;;;5.15;;
52043;SDS011;38053;53.100;6.078;2023-08-30T11:56:07;9.18;;;5.75;;
52043;SDS011;38053;53.100;6.078;2023-08-30T11:58:34;7.38;;;5.25;;
52043;SDS011;38053;53.100;6.078;2023-08-30T12:01:01;8.68;;;5.95;;
52043;SDS011;38053;53.100;6.078;2023-08-30T12:03:27;7.65;;;5.15;;
52043;SDS011;38053;53.100;6.078;2023-08-30T12:05:54;9.80;;;6.05;;
52043;SDS011;38053;53.100;6.078;2023-08-30T12:08:20;9.00;;;6.22;;
52043;SDS011;38053;53.100;6.078;2023-08-30T12:10:51;11.55;;;5.75;;
52043;SDS011;38053;53.100;6.078;2023-08-30T12:13:27;9.15;;;5.82;;
52043;SDS011;38053;53.100;6.078;2023-08-30T12:15:54;8.98;;;6.43;;
52043;SDS011;38053;53.100;6.078;2023-08-30T12:20:53;9.77;;;7.22;;
52043;SDS011;38053;53.100;6.078;2023-08-30T12:23:25;11.27;;;6.95;;
52043;SDS011;38053;53.100;6.078;2023-08-30T12:26:02;11.88;;;7.15;;
52043;SDS011;38053;53.100;6.078;2023-08-30T12:28:29;11.57;;;7.57;;
52043;SDS011;38053;53.100;6.078;2023-08-30T12:30:56;13.60;;;9.02;;
52043;SDS011;38053;53.100;6.078;2023-08-30T12:33:23;14.40;;;8.60;;
52043;SDS011;38053;53.100;6.078;2023-08-30T12:35:53;12.93;;;9.70;;
52043;SDS011;38053;53.100;6.078;2023-08-30T12:38:19;11.93;;;8.52;;
52043;SDS011;38053;53.100;6.078;2023-08-30T12:40:45;12.57;;;8.70;;
52043;SDS011;38053;53.100;6.078;2023-08-30T12:43:13;11.80;;;8.55;;
52043;SDS011;38053;53.100;6.078;2023-08-30T12:45:39;12.57;;;8.43;;
52043;SDS011;38053;53.100;6.078;2023-08-30T12:48:09;11.25;;;8.35;;
52043;SDS011;38053;53.100;6.078;2023-08-30T12:50:37;11.02;;;9.27;;
52043;SDS011;38053;53.100;6.078;2023-08-30T12:53:03;12.98;;;9.23;;
52043;SDS011;38053;53.100;6.078;2023-08-30T12:55:30;14.38;;;9.23;;
52043;SDS011;38053;53.100;6.078;2023-08-30T12:57:56;13.88;;;9.27;;
52043;SDS011;38053;53.100;6.078;2023-08-30T13:00:22;11.52;;;8.73;;
52043;SDS011;38053;53.100;6.078;2023-08-30T13:02:48;11.32;;;8.50;;
52043;SDS011;38053;53.100;6.078;2023-08-30T13:05:14;9.48;;;7.63;;
52043;SDS011;38053;53.100;6.078;2023-08-30T13:07:40;10.05;;;7.30;;
52043;SDS011;38053;53.100;6.078;2023-08-30T13:10:07;10.57;;;7.45;;
52043;SDS011;38053;53.100;6.078;2023-08-30T13:12:33;10.05;;;7.78;;
52043;SDS011;38053;53.100;6.078;2023-08-30T13:14:59;11.68;;;9.02;;
52043;SDS011;38053;53.100;6.078;2023-08-30T13:17:25;11.45;;;9.10;;
52043;SDS011;38053;53.100;6.078;2023-08-30T13:19:50;10.73;;;8.40;;
52043;SDS011;38053;53.100;6.078;2023-08-30T13:22:16;9.93;;;8.35;;
52043;SDS011;38053;53.100;6.078;2023-08-30T13:24:43;10.65;;;8.65;;
52043;SDS011;38053;53.100;6.078;2023-08-30T13:27:09;13.95;;;9.90;;
52043;SDS011;38053;53.100;6.078;2023-08-30T13:29:35;14.85;;;9.45;;
52043;SDS011;38053;53.100;6.078;2023-08-30T13:32:01;12.80;;;9.48;;
52043;SDS011;38053;53.100;6.078;2023-08-30T13:34:27;12.55;;;9.52;;
52043;SDS011;38053;53.100;6.078;2023-08-30T13:36:52;14.00;;;10.40;;
52043;SDS011;38053;53.100;6.078;2023-08-30T13:39:18;32.95;;;11.88;;
52043;SDS011;38053;53.100;6.078;2023-08-30T13:41:46;21.63;;;11.02;;
52043;SDS011;38053;53.100;6.078;2023-08-30T13:44:12;20.58;;;11.45;;
52043;SDS011;38053;53.100;6.078;2023-08-30T13:46:38;16.10;;;11.85;;
52043;SDS011;38053;53.100;6.078;2023-08-30T13:49:08;64.15;;;17.52;;
52043;SDS011;38053;53.100;6.078;2023-08-30T13:51:33;96.43;;;19.27;;
52043;SDS011;38053;53.100;6.078;2023-08-30T13:53:59;22.13;;;13.90;;
52043;SDS011;38053;53.100;6.078;2023-08-30T13:56:25;14.38;;;12.05;;
52043;SDS011;38053;53.100;6.078;2023-08-30T13:58:51;16.92;;;11.15;;
52043;SDS011;38053;53.100;6.078;2023-08-30T14:01:17;14.65;;;11.40;;
52043;SDS011;38053;53.100;6.078;2023-08-30T14:03:43;16.25;;;11.02;;
52043;SDS011;38053;53.100;6.078;2023-08-30T14:06:09;14.07;;;10.88;;
52043;SDS011;38053;53.100;6.078;2023-08-30T14:08:35;17.17;;;11.77;;
52043;SDS011;38053;53.100;6.078;2023-08-30T14:11:01;16.50;;;12.20;;
52043;SDS011;38053;53.100;6.078;2023-08-30T14:13:26;17.02;;;12.40;;
52043;SDS011;38053;53.100;6.078;2023-08-30T14:18:23;10.13;;;7.90;;
52043;SDS011;38053;53.100;6.078;2023-08-30T14:20:49;8.25;;;4.93;;
52043;SDS011;38053;53.100;6.078;2023-08-30T14:23:15;8.63;;;5.55;;
52043;SDS011;38053;53.100;6.078;2023-08-30T14:25:40;9.27;;;6.15;;
52043;SDS011;38053;53.100;6.078;2023-08-30T14:28:06;10.98;;;7.32;;
52043;SDS011;38053;53.100;6.078;2023-08-30T14:30:32;7.13;;;5.63;;
52043;SDS011;38053;53.100;6.078;2023-08-30T14:32:57;10.60;;;8.00;;
52043;SDS011;38053;53.100;6.078;2023-08-30T14:35:23;7.40;;;6.38;;
52043;SDS011;38053;53.100;6.078;2023-08-30T14:37:50;8.85;;;5.47;;
52043;SDS011;38053;53.100;6.078;2023-08-30T14:40:15;8.55;;;6.13;;
52043;SDS011;38053;53.100;6.078;2023-08-30T14:42:41;9.88;;;5.88;;